Ana Sayfa
METAR-TAF:

METAR-TAF

Havaalanları :

Stinson Municipal Airport

San Antonio, Teksas, Amerika Birleşik Devletleri

Enlem: 29-20-20N, Boylam: 098-28-18W, yükseklik: 175 m

Güncel hava durumu gözlemi

Rapor saat 08:53 UTC de 33 dakika önce yapıldı.
Sakin rüzgar
Sıcaklık 3°C
Nem 65%
Basınç 1027 hPa
Görüş mesafesi: 16.1 km
Açık gökyüzü

METAR: KSSF 280853Z AUTO 00000KT 10SM CLR 03/M03 A3034 RMK AO2 SLP274 T00331028 58002 $

Saat: 03:26 (09:26 UTC)

Tahmin

Rapor saat 05:20 UTC de 4 saat ve 6 dakika önce yapıldı.
Ayın 28'si saat 06 UTC'den ayın 29'si saat 06 UTC'ye kadar geçerli Tahmin
Rüzgar değişken yönden 3 kt
Görüş mesafesi: 10 km
Açık gökyüzü
Ayın 28'si saat 1600 UTC'den
Rüzgar batıdan 5 kt
Görüş mesafesi: 10 km
Açık gökyüzü

TAF: KSSF 280520Z 2806/2906 VRB03KT P6SM SKC FM281600 26005KT P6SM SKC

4.000'den fazla havaalanı için hava durumu gözlemleri ve tahminleri (METAR ve TAF raporları).

Kullanılabilir istasyonlar harita üzerinde sarı ve kırmızı noktalarla gösterilir.

İstasyonun adını görmek için fareyi noktanın üzerinde gezdirin.

Sonrasında hava gözlem ve tahminlerini görmek için tıklayın.

Haritayı değiştirmek için: yaklaştırmak için siyah artı işaretli yeşil düğmeye ve uzaklaştırmak için de eksi işaretli düğmeye hızla tıklayın; bitişik haritalar için yeşil okları kullanın.


METAR-TAF: